createdAt,value
2022-10-31T00:01:18.378Z,8.40
2022-10-31T00:03:45.126Z,8.44
2022-10-31T00:06:11.690Z,8.44
2022-10-31T00:08:38.242Z,8.42
2022-10-31T00:11:04.954Z,8.40
2022-10-31T00:13:32.283Z,8.43
2022-10-31T00:15:58.859Z,8.50
2022-10-31T00:18:25.468Z,8.42
2022-10-31T00:21:00.382Z,8.60
2022-10-31T00:23:26.983Z,8.68
2022-10-31T00:25:53.519Z,8.70
2022-10-31T00:30:51.563Z,8.37
2022-10-31T00:33:18.151Z,8.22
2022-10-31T00:35:51.410Z,8.13
2022-10-31T00:38:18.008Z,8.15
2022-10-31T00:40:44.573Z,8.24
2022-10-31T00:45:38.648Z,8.62
2022-10-31T00:48:05.653Z,8.76
2022-10-31T00:50:32.284Z,8.81
2022-10-31T00:52:59.636Z,8.82
2022-10-31T00:55:26.212Z,8.79
2022-10-31T00:57:53.227Z,8.80
2022-10-31T01:00:20.830Z,8.78
2022-10-31T01:02:48.380Z,8.77
2022-10-31T01:05:15.340Z,8.78
2022-10-31T01:07:42.385Z,8.78
2022-10-31T01:10:11.221Z,8.76
2022-10-31T01:12:42.905Z,8.65
2022-10-31T01:15:10.030Z,8.50
2022-10-31T01:17:36.588Z,8.35
2022-10-31T01:20:04.429Z,8.16
2022-10-31T01:22:31.843Z,8.07
2022-10-31T01:25:03.701Z,7.99
2022-10-31T01:27:30.354Z,8.00
2022-10-31T01:29:56.932Z,8.05
2022-10-31T01:32:23.576Z,8.21
2022-10-31T01:34:51.296Z,8.25
2022-10-31T01:37:17.884Z,8.23
2022-10-31T01:39:44.542Z,8.14
2022-10-31T01:42:18.954Z,8.09
2022-10-31T01:45:01.405Z,8.14
2022-10-31T01:47:36.382Z,8.15
2022-10-31T01:50:10.711Z,8.02
2022-10-31T01:52:41.501Z,7.85
2022-10-31T01:55:17.104Z,7.80
2022-10-31T01:57:47.593Z,7.94
2022-10-31T02:00:16.269Z,8.02
2022-10-31T02:02:43.577Z,8.10
2022-10-31T02:05:15.545Z,8.16
2022-10-31T02:08:08.290Z,8.14
2022-10-31T02:10:37.516Z,7.93
2022-10-31T02:13:07.020Z,7.73
2022-10-31T02:15:38.873Z,7.66
2022-10-31T02:18:07.803Z,7.54
2022-10-31T02:20:49.086Z,7.54
2022-10-31T02:23:53.203Z,7.51
2022-10-31T02:26:38.837Z,7.47
2022-10-31T02:29:20.582Z,7.43
2022-10-31T02:31:53.268Z,7.40
2022-10-31T02:34:27.239Z,7.50
2022-10-31T02:37:02.794Z,7.49
2022-10-31T02:39:48.814Z,7.45
2022-10-31T02:42:41.342Z,7.40
2022-10-31T02:45:19.710Z,7.30
2022-10-31T02:47:50.100Z,7.32
2022-10-31T02:50:32.760Z,7.29
2022-10-31T02:52:59.413Z,7.27
2022-10-31T02:55:26.077Z,7.24
2022-10-31T02:58:12.468Z,7.23
2022-10-31T03:00:52.367Z,7.16
2022-10-31T03:03:27.848Z,7.14
2022-10-31T03:06:06.506Z,7.19
2022-10-31T03:08:56.840Z,7.33
2022-10-31T03:11:29.185Z,7.52
2022-10-31T03:14:07.802Z,7.64
2022-10-31T03:16:50.775Z,7.66
2022-10-31T03:19:32.103Z,7.61
2022-10-31T03:22:13.495Z,7.53
2022-10-31T03:24:40.659Z,7.34
2022-10-31T03:27:10.684Z,7.12
2022-10-31T03:29:39.408Z,7.03
2022-10-31T03:32:06.049Z,6.99
2022-10-31T03:34:37.187Z,6.93
2022-10-31T03:37:10.376Z,6.88
2022-10-31T03:39:39.887Z,6.94
2022-10-31T03:42:12.421Z,6.87
2022-10-31T03:44:41.878Z,6.85
2022-10-31T03:47:08.593Z,6.82
2022-10-31T03:49:36.208Z,6.81
2022-10-31T03:52:16.137Z,6.84
2022-10-31T03:54:44.638Z,6.82
2022-10-31T03:57:17.913Z,6.72
2022-10-31T04:00:17.605Z,6.68
2022-10-31T04:02:56.680Z,6.67
2022-10-31T04:05:24.921Z,6.65
2022-10-31T04:07:55.599Z,6.70
2022-10-31T04:10:28.655Z,6.73
2022-10-31T04:13:06.304Z,6.81
2022-10-31T04:15:46.002Z,6.81
2022-10-31T04:18:12.953Z,6.79
2022-10-31T04:20:42.037Z,6.71
2022-10-31T04:23:21.558Z,6.69
2022-10-31T04:25:48.983Z,6.66
2022-10-31T04:30:43.832Z,6.55
2022-10-31T04:33:10.597Z,6.48
2022-10-31T04:35:37.462Z,6.47
2022-10-31T04:38:04.099Z,6.47
2022-10-31T04:40:30.894Z,6.46
2022-10-31T04:43:29.614Z,6.38
2022-10-31T04:45:56.187Z,6.33
2022-10-31T04:48:22.974Z,6.22
2022-10-31T04:50:49.600Z,6.16
2022-10-31T04:53:16.159Z,6.13
2022-10-31T04:56:01.955Z,6.13
2022-10-31T04:58:36.657Z,6.11
2022-10-31T05:01:06.952Z,6.10
2022-10-31T05:03:33.747Z,6.11
2022-10-31T05:06:00.312Z,6.11
2022-10-31T05:08:27.781Z,6.09
2022-10-31T05:10:56.591Z,6.08
2022-10-31T05:13:24.709Z,6.06
2022-10-31T05:16:09.851Z,6.06
2022-10-31T05:18:55.254Z,6.12
2022-10-31T05:21:36.734Z,6.07
2022-10-31T05:24:04.291Z,6.04
2022-10-31T05:26:31.514Z,6.09
2022-10-31T05:28:58.202Z,6.26
2022-10-31T05:31:24.875Z,6.47
2022-10-31T05:33:53.249Z,6.54
2022-10-31T05:36:38.469Z,6.56
2022-10-31T05:39:19.205Z,6.48
2022-10-31T05:41:48.701Z,6.39
2022-10-31T05:44:20.053Z,6.36
2022-10-31T05:47:07.524Z,6.22
2022-10-31T05:50:07.293Z,6.11
2022-10-31T05:52:48.371Z,6.00
2022-10-31T05:55:21.593Z,5.95
2022-10-31T05:58:04.357Z,5.98
2022-10-31T06:00:31.718Z,5.89
2022-10-31T06:05:55.196Z,5.79
2022-10-31T06:08:25.021Z,5.75
2022-10-31T06:10:53.990Z,5.78
2022-10-31T06:13:29.215Z,5.76
2022-10-31T06:16:01.318Z,5.79
2022-10-31T06:18:34.422Z,5.84
2022-10-31T06:21:01.222Z,5.88
2022-10-31T06:23:28.676Z,5.96
2022-10-31T06:26:15.188Z,6.05
2022-10-31T06:28:41.990Z,6.04
2022-10-31T06:31:24.422Z,6.09
2022-10-31T06:33:51.061Z,6.11
2022-10-31T06:36:17.721Z,6.12
2022-10-31T06:38:44.426Z,6.13
2022-10-31T06:41:11.564Z,6.17
2022-10-31T06:43:42.598Z,6.27
2022-10-31T06:46:27.679Z,6.31
2022-10-31T06:49:10.520Z,6.38
2022-10-31T06:51:51.059Z,6.44
2022-10-31T06:54:18.176Z,6.56
2022-10-31T06:56:48.235Z,6.68
2022-10-31T06:59:16.212Z,6.85
2022-10-31T07:02:04.845Z,7.00
2022-10-31T07:04:32.773Z,7.07
2022-10-31T07:06:59.434Z,7.17
2022-10-31T07:09:25.961Z,7.25
2022-10-31T07:11:54.388Z,7.33
2022-10-31T07:14:21.526Z,7.44
2022-10-31T07:16:52.002Z,7.53
2022-10-31T07:19:24.027Z,7.64
2022-10-31T07:21:50.636Z,7.80
2022-10-31T07:24:17.238Z,7.98
2022-10-31T07:26:43.899Z,8.20
2022-10-31T07:29:11.162Z,8.32
2022-10-31T07:31:38.086Z,8.48
2022-10-31T07:34:11.390Z,8.62
2022-10-31T07:36:56.666Z,8.86
2022-10-31T07:39:23.315Z,9.09
2022-10-31T07:41:50.285Z,9.33
2022-10-31T07:44:19.289Z,9.63
2022-10-31T07:47:04.299Z,9.99
2022-10-31T07:50:07.404Z,10.44
2022-10-31T07:53:05.881Z,10.87
2022-10-31T07:55:52.160Z,11.25
2022-10-31T07:58:19.460Z,11.42
2022-10-31T08:00:48.120Z,11.88
2022-10-31T08:03:20.474Z,12.16
2022-10-31T08:05:59.146Z,12.66
2022-10-31T08:08:54.675Z,13.11
2022-10-31T08:11:22.893Z,13.57
2022-10-31T08:13:49.447Z,14.03
2022-10-31T08:16:16.188Z,14.26
2022-10-31T08:18:51.354Z,14.49
2022-10-31T08:21:18.054Z,14.46
2022-10-31T08:23:45.539Z,14.61
2022-10-31T08:26:14.723Z,14.74
2022-10-31T08:28:42.724Z,15.09
2022-10-31T08:31:11.033Z,15.46
2022-10-31T08:33:40.543Z,15.41
2022-10-31T08:36:19.052Z,15.67
2022-10-31T08:38:51.532Z,15.70
2022-10-31T08:41:18.154Z,16.24
2022-10-31T08:43:44.799Z,15.66
2022-10-31T08:46:11.761Z,16.48
2022-10-31T08:48:40.116Z,17.14
2022-10-31T08:51:07.431Z,16.98
2022-10-31T08:53:34.034Z,17.21
2022-10-31T08:56:19.885Z,17.30
2022-10-31T08:58:46.774Z,18.06
2022-10-31T09:01:14.516Z,17.39
2022-10-31T09:03:43.088Z,17.67
2022-10-31T09:06:11.264Z,18.26
2022-10-31T09:08:38.186Z,18.40
2022-10-31T09:11:05.247Z,18.81
2022-10-31T09:13:50.227Z,18.43
2022-10-31T09:16:49.081Z,18.22
2022-10-31T09:19:22.021Z,19.12
2022-10-31T09:21:48.629Z,19.48
2022-10-31T09:24:15.257Z,19.91
2022-10-31T09:26:42.831Z,20.22
2022-10-31T09:29:26.200Z,20.66
2022-10-31T09:31:57.742Z,20.88
2022-10-31T09:34:33.827Z,21.29
2022-10-31T09:37:09.670Z,22.24
2022-10-31T09:39:36.321Z,22.32
2022-10-31T09:42:48.837Z,22.86
2022-10-31T09:45:44.135Z,22.81
2022-10-31T09:49:19.875Z,22.73
2022-10-31T09:52:27.790Z,22.70
2022-10-31T09:55:00.320Z,23.04
2022-10-31T09:57:32.788Z,23.21
2022-10-31T10:00:00.342Z,22.85
2022-10-31T10:02:44.173Z,22.99
2022-10-31T10:05:14.077Z,22.81
2022-10-31T10:08:01.477Z,22.52
2022-10-31T10:10:46.773Z,21.89
2022-10-31T10:14:01.268Z,21.90
2022-10-31T10:16:34.328Z,22.04
2022-10-31T10:19:25.642Z,22.92
2022-10-31T10:21:59.560Z,23.26
2022-10-31T10:24:32.229Z,23.03
2022-10-31T10:27:23.276Z,22.70
2022-10-31T10:30:12.279Z,22.20
2022-10-31T10:32:51.898Z,22.11
2022-10-31T10:35:18.704Z,21.97
2022-10-31T10:37:48.159Z,22.07
2022-10-31T10:40:18.303Z,22.37
2022-10-31T10:43:10.605Z,22.19
2022-10-31T10:45:56.808Z,22.10
2022-10-31T10:48:38.871Z,22.77
2022-10-31T10:51:25.583Z,22.91
2022-10-31T10:54:21.778Z,23.14
2022-10-31T10:57:18.773Z,23.43
2022-10-31T10:59:46.794Z,24.19
2022-10-31T11:02:23.148Z,24.02
2022-10-31T11:04:55.802Z,23.85
2022-10-31T11:07:22.765Z,23.90
2022-10-31T11:09:49.396Z,23.66
2022-10-31T11:12:32.881Z,23.05
2022-10-31T11:15:07.911Z,22.63
2022-10-31T11:17:41.157Z,22.66
2022-10-31T11:20:17.827Z,22.74
2022-10-31T11:22:48.358Z,22.52
2022-10-31T11:27:47.707Z,23.78
2022-10-31T11:30:15.333Z,23.24
2022-10-31T11:32:52.010Z,22.79
2022-10-31T11:35:20.837Z,22.29
2022-10-31T11:37:50.390Z,21.52
2022-10-31T11:40:20.298Z,20.88
2022-10-31T11:42:48.178Z,20.94
2022-10-31T11:45:23.768Z,20.05
2022-10-31T11:47:58.169Z,19.58
2022-10-31T11:50:37.595Z,19.14
2022-10-31T11:53:11.576Z,18.63
2022-10-31T11:55:40.784Z,18.67
2022-10-31T11:58:23.335Z,18.86
2022-10-31T12:00:55.946Z,18.92
2022-10-31T12:03:43.156Z,19.55
2022-10-31T12:06:19.640Z,20.39
2022-10-31T12:08:47.552Z,21.00
2022-10-31T12:11:48.171Z,22.34
2022-10-31T12:14:56.695Z,23.14
2022-10-31T12:17:30.702Z,23.82
2022-10-31T12:20:24.402Z,24.61
2022-10-31T12:23:03.958Z,25.35
2022-10-31T12:25:41.189Z,26.22
2022-10-31T12:28:46.367Z,26.34
2022-10-31T12:31:43.866Z,28.16
2022-10-31T12:34:35.020Z,28.70
2022-10-31T12:37:21.795Z,27.47
2022-10-31T12:40:06.174Z,26.23
2022-10-31T12:42:54.181Z,24.78
2022-10-31T12:45:32.508Z,23.75
2022-10-31T12:48:20.451Z,23.37
2022-10-31T12:51:17.996Z,24.29
2022-10-31T12:53:50.511Z,23.98
2022-10-31T12:56:26.079Z,23.88
2022-10-31T12:59:04.259Z,23.72
2022-10-31T13:01:36.286Z,24.54
2022-10-31T13:04:27.178Z,24.19
2022-10-31T13:07:00.968Z,23.57
2022-10-31T13:09:38.137Z,22.80
2022-10-31T13:12:19.152Z,21.91
2022-10-31T13:14:49.229Z,21.25
2022-10-31T13:17:39.694Z,20.95
2022-10-31T13:20:24.596Z,20.59
2022-10-31T13:22:56.838Z,20.22
2022-10-31T13:25:34.307Z,20.06
2022-10-31T13:28:05.989Z,19.92
2022-10-31T13:30:37.542Z,20.06
2022-10-31T13:33:17.480Z,20.07
2022-10-31T13:35:46.791Z,20.03
2022-10-31T13:38:35.849Z,20.37
2022-10-31T13:41:28.252Z,20.38
2022-10-31T13:43:57.879Z,20.43
2022-10-31T13:46:34.619Z,20.69
2022-10-31T13:49:01.555Z,22.14
2022-10-31T13:51:31.212Z,23.97
2022-10-31T13:54:01.857Z,25.32
2022-10-31T13:56:34.461Z,24.87
2022-10-31T13:59:04.126Z,24.44
2022-10-31T14:01:32.822Z,23.58
2022-10-31T14:04:13.151Z,23.70
2022-10-31T14:06:44.097Z,24.95
2022-10-31T14:09:42.857Z,25.89
2022-10-31T14:12:23.507Z,26.63
2022-10-31T14:14:57.863Z,27.08
2022-10-31T14:17:34.739Z,27.11
2022-10-31T14:20:11.996Z,26.28
2022-10-31T14:22:42.954Z,25.55
2022-10-31T14:25:33.264Z,24.63
2022-10-31T14:28:02.665Z,23.77
2022-10-31T14:30:31.593Z,24.82
2022-10-31T14:33:03.804Z,25.38
2022-10-31T14:35:47.693Z,25.64
2022-10-31T14:38:27.223Z,24.62
2022-10-31T14:41:33.057Z,22.81
2022-10-31T14:44:21.841Z,21.82
2022-10-31T14:46:57.395Z,20.81
2022-10-31T14:49:39.210Z,20.44
2022-10-31T14:52:09.485Z,20.14
2022-10-31T14:54:42.419Z,19.95
2022-10-31T14:57:22.939Z,19.60
2022-10-31T14:59:59.133Z,19.19
2022-10-31T15:02:37.608Z,19.14
2022-10-31T15:05:09.700Z,18.96
2022-10-31T15:07:37.636Z,18.80
2022-10-31T15:10:21.759Z,18.60
2022-10-31T15:12:48.685Z,18.55
2022-10-31T15:15:20.238Z,18.28
2022-10-31T15:17:52.891Z,17.88
2022-10-31T15:20:24.293Z,17.76
2022-10-31T15:22:51.439Z,17.59
2022-10-31T15:25:23.369Z,17.43
2022-10-31T15:27:51.082Z,17.52
2022-10-31T15:30:26.860Z,17.24
2022-10-31T15:33:01.131Z,17.19
2022-10-31T15:35:31.848Z,17.18
2022-10-31T15:38:00.470Z,17.14
2022-10-31T15:40:28.074Z,16.95
2022-10-31T15:42:58.844Z,16.66
2022-10-31T15:45:28.011Z,16.40
2022-10-31T15:48:17.700Z,16.19
2022-10-31T15:50:54.409Z,16.15
2022-10-31T15:53:20.915Z,16.03
2022-10-31T15:55:52.839Z,15.69
2022-10-31T15:58:19.854Z,15.38
2022-10-31T16:00:59.168Z,15.24
2022-10-31T16:03:29.594Z,15.22
2022-10-31T16:05:58.918Z,15.00
2022-10-31T16:08:27.416Z,14.77
2022-10-31T16:10:55.076Z,14.56
2022-10-31T16:13:27.738Z,14.34
2022-10-31T16:16:21.274Z,14.20
2022-10-31T16:18:45.936Z,14.13
2022-10-31T16:21:13.364Z,14.06
2022-10-31T16:23:47.058Z,13.99
2022-10-31T16:26:18.885Z,13.78
2022-10-31T16:29:03.223Z,13.57
2022-10-31T16:31:39.137Z,13.43
2022-10-31T16:34:22.355Z,13.28
2022-10-31T16:36:52.078Z,13.22
2022-10-31T16:39:18.696Z,13.08
2022-10-31T16:41:47.542Z,12.99
2022-10-31T16:44:19.557Z,12.94
2022-10-31T16:46:46.499Z,13.13
2022-10-31T16:49:13.311Z,13.04
2022-10-31T16:51:39.933Z,12.95
2022-10-31T16:54:06.539Z,12.84
2022-10-31T16:56:37.056Z,12.67
2022-10-31T16:59:09.824Z,12.54
2022-10-31T17:01:41.345Z,12.43
2022-10-31T17:04:12.882Z,12.31
2022-10-31T17:06:39.344Z,12.17
2022-10-31T17:09:05.907Z,12.10
2022-10-31T17:11:32.489Z,12.03
2022-10-31T17:13:59.274Z,11.93
2022-10-31T17:16:25.809Z,11.80
2022-10-31T17:18:52.381Z,11.75
2022-10-31T17:21:24.077Z,11.69
2022-10-31T17:23:51.298Z,11.68
2022-10-31T17:26:19.016Z,11.70
2022-10-31T17:28:45.659Z,11.32
2022-10-31T17:31:29.913Z,11.24
2022-10-31T17:34:02.162Z,11.21
2022-10-31T17:36:31.015Z,11.31
2022-10-31T17:38:57.667Z,11.31
2022-10-31T17:41:24.490Z,11.30
2022-10-31T17:43:57.726Z,11.33
2022-10-31T17:46:24.953Z,11.03
2022-10-31T17:48:51.594Z,10.83
2022-10-31T17:51:18.426Z,10.76
2022-10-31T17:53:45.009Z,10.67
2022-10-31T17:56:11.988Z,10.66
2022-10-31T17:58:38.724Z,10.54
2022-10-31T18:01:10.585Z,10.54
2022-10-31T18:03:38.767Z,10.50
2022-10-31T18:06:06.278Z,10.43
2022-10-31T18:08:35.151Z,10.46
2022-10-31T18:11:14.597Z,10.48
2022-10-31T18:13:41.574Z,10.45
2022-10-31T18:16:14.235Z,10.31
2022-10-31T18:18:40.911Z,10.30
2022-10-31T18:21:07.619Z,10.32
2022-10-31T18:23:34.390Z,10.31
2022-10-31T18:26:01.022Z,10.30
2022-10-31T18:28:27.640Z,10.40
2022-10-31T18:30:54.184Z,10.29
2022-10-31T18:33:20.791Z,10.16
2022-10-31T18:35:47.470Z,9.97
2022-10-31T18:38:14.090Z,9.85
2022-10-31T18:40:40.646Z,9.78
2022-10-31T18:43:07.279Z,9.66
2022-10-31T18:45:46.560Z,9.65
2022-10-31T18:48:15.914Z,9.58
2022-10-31T18:50:43.277Z,9.48
2022-10-31T18:53:10.024Z,9.47
2022-10-31T18:55:44.057Z,9.43
2022-10-31T18:58:14.362Z,9.40
2022-10-31T19:00:41.001Z,9.40
2022-10-31T19:03:07.588Z,9.31
2022-10-31T19:05:34.179Z,9.33
2022-10-31T19:08:00.785Z,9.18
2022-10-31T19:10:27.601Z,9.16
2022-10-31T19:12:54.207Z,9.18
2022-10-31T19:15:20.792Z,9.14
2022-10-31T19:17:47.493Z,9.19
2022-10-31T19:20:14.326Z,9.10
2022-10-31T19:22:40.865Z,8.97
2022-10-31T19:25:10.561Z,9.00
2022-10-31T19:27:38.139Z,8.91
2022-10-31T19:30:06.325Z,8.92
2022-10-31T19:32:33.163Z,8.92
2022-10-31T19:34:59.846Z,9.03
2022-10-31T19:37:26.403Z,9.05
2022-10-31T19:39:52.956Z,9.04
2022-10-31T19:42:19.547Z,9.16
2022-10-31T19:44:46.192Z,9.24
2022-10-31T19:47:12.770Z,9.18
2022-10-31T19:49:39.346Z,9.13
2022-10-31T19:52:05.910Z,9.12
2022-10-31T19:54:32.564Z,9.17
2022-10-31T19:56:59.112Z,9.03
2022-10-31T19:59:26.344Z,8.96
2022-10-31T20:01:53.104Z,8.92
2022-10-31T20:04:19.687Z,8.90
2022-10-31T20:06:46.673Z,8.98
2022-10-31T20:09:14.337Z,8.94
2022-10-31T20:11:42.827Z,8.93
2022-10-31T20:14:12.655Z,8.93
2022-10-31T20:16:39.806Z,8.88
2022-10-31T20:19:06.457Z,8.78
2022-10-31T20:21:36.991Z,8.72
2022-10-31T20:24:07.278Z,8.61
2022-10-31T20:26:34.791Z,8.53
2022-10-31T20:29:02.390Z,8.50
2022-10-31T20:31:32.022Z,8.47
2022-10-31T20:33:58.892Z,8.37
2022-10-31T20:36:25.751Z,8.29
2022-10-31T20:38:53.047Z,8.17
2022-10-31T20:41:20.007Z,8.07
2022-10-31T20:43:47.105Z,8.06
2022-10-31T20:46:14.734Z,8.03
2022-10-31T20:48:41.646Z,7.95
2022-10-31T20:53:52.949Z,7.99
2022-10-31T20:56:21.642Z,7.97
2022-10-31T20:58:49.038Z,7.91
2022-10-31T21:01:21.714Z,7.87
2022-10-31T21:03:49.342Z,7.90
2022-10-31T21:06:17.374Z,7.87
2022-10-31T21:08:44.380Z,7.91
2022-10-31T21:11:13.231Z,7.86
2022-10-31T21:13:41.832Z,7.95
2022-10-31T21:16:11.862Z,7.93
2022-10-31T21:18:40.301Z,7.91
2022-10-31T21:21:18.701Z,7.91
2022-10-31T21:23:45.695Z,7.89
2022-10-31T21:26:23.594Z,7.85
2022-10-31T21:28:53.582Z,7.96
2022-10-31T21:31:20.581Z,7.89
2022-10-31T21:33:47.465Z,7.87
2022-10-31T21:36:14.539Z,7.82
2022-10-31T21:38:41.464Z,7.78
2022-10-31T21:41:09.707Z,7.75
2022-10-31T21:43:38.322Z,7.84
2022-10-31T21:46:06.691Z,7.88
2022-10-31T21:48:34.088Z,7.85
2022-10-31T21:51:04.642Z,7.79
2022-10-31T21:53:50.336Z,7.58
2022-10-31T21:56:16.951Z,7.75
2022-10-31T21:58:43.530Z,7.75
2022-10-31T22:01:10.145Z,7.90
2022-10-31T22:03:38.339Z,7.89
2022-10-31T22:06:06.567Z,7.90
2022-10-31T22:08:33.368Z,7.98
2022-10-31T22:11:13.551Z,8.02
2022-10-31T22:13:41.620Z,8.03
2022-10-31T22:16:11.812Z,8.03
2022-10-31T22:18:42.895Z,8.04
2022-10-31T22:21:15.031Z,8.12
2022-10-31T22:23:42.289Z,8.22
2022-10-31T22:26:15.246Z,8.18
2022-10-31T22:28:44.130Z,8.15
2022-10-31T22:31:14.137Z,8.15
2022-10-31T22:33:40.813Z,8.17
2022-10-31T22:36:09.891Z,8.03
2022-10-31T22:38:40.796Z,7.89
2022-10-31T22:41:08.763Z,7.85
2022-10-31T22:43:35.698Z,7.82
2022-10-31T22:46:05.218Z,8.05
2022-10-31T22:48:39.797Z,8.16
2022-10-31T22:51:13.898Z,8.23
2022-10-31T22:53:41.279Z,8.15
2022-10-31T22:56:10.190Z,8.16
2022-10-31T22:58:37.092Z,8.19
2022-10-31T23:01:08.984Z,8.22
2022-10-31T23:03:36.169Z,7.92
2022-10-31T23:06:04.462Z,7.82
2022-10-31T23:08:32.530Z,7.60
2022-10-31T23:10:59.133Z,7.56
2022-10-31T23:13:44.072Z,7.51
2022-10-31T23:16:13.482Z,7.47
2022-10-31T23:18:55.261Z,7.43
2022-10-31T23:21:43.128Z,7.43
2022-10-31T23:24:13.457Z,7.46
2022-10-31T23:26:58.296Z,7.51
2022-10-31T23:29:24.906Z,7.61
2022-10-31T23:31:54.470Z,7.77
2022-10-31T23:34:22.033Z,7.77
2022-10-31T23:36:49.220Z,7.84
2022-10-31T23:39:18.801Z,7.70
2022-10-31T23:41:48.350Z,7.82
2022-10-31T23:44:14.995Z,7.98
2022-10-31T23:46:41.615Z,7.90
2022-10-31T23:49:08.457Z,7.89
2022-10-31T23:51:35.075Z,7.90
2022-10-31T23:54:01.685Z,7.91
2022-10-31T23:56:28.388Z,7.94
2022-10-31T23:58:54.990Z,7.99
